Picton Castle — E5WP — position and weather

sailwx.info

Track history (hours):
 
Tides and Currents Weather Stations Pressure Air Temp Water Temp Dewpoint Dewpoint Depression Visibility Wind Speed Wind Dir Waves Ship Positions

Picton Castle (Cook Islands)

Ship's website: http://www.picton-castle.com/

Last reported at 2016-May-31 17:32 UTC. Time now 2016-May-31 18:02 UTC.
Position N 46°09' W 001°09'.

; draft 4.4 m.

Type: Sailing vessel. MMSI: 518000019.

Date/timePositionNaut miles runAvg speedWind from/ knotsBaromVisibWave heightAir tempDewpointWater temp
2016-May-31 17:32N 46°09' W 001°09'0 0.0
2016-May-31 16:31N 46°09' W 001°09'0 0.0
2016-May-31 15:28N 46°09' W 001°09'0 0.0
2016-May-31 14:29N 46°09' W 001°09'0 0.0
2016-May-31 13:32N 46°09' W 001°09'0 0.0
2016-May-31 12:31N 46°09' W 001°09'0 0.0
2016-May-31 11:31N 46°09' W 001°09'0 0.0
2016-May-31 10:32N 46°09' W 001°09'0 0.0
2016-May-31 09:31N 46°09' W 001°09'0 0.0
2016-May-31 08:31N 46°09' W 001°09'0 0.0
2016-May-31 07:31N 46°09' W 001°09'0 0.0
2016-May-31 06:31N 46°09' W 001°09'0 0.0
2016-May-31 04:31N 46°09' W 001°09'0 0.0
2016-May-31 03:31N 46°09' W 001°09'0 0.0
2016-May-31 02:31N 46°09' W 001°09'0 0.0
2016-May-31 01:31N 46°09' W 001°09'0 0.0
2016-May-31 00:31N 46°09' W 001°09'0 0.0
2016-May-30 23:31N 46°09' W 001°09'0 0.0
2016-May-30 22:31N 46°09' W 001°09'0 0.0
2016-May-30 21:31N 46°09' W 001°09'0 0.0
2016-May-30 20:31N 46°09' W 001°09'0 0.0
2016-May-30 19:31N 46°09' W 001°09'0 0.0
2016-May-30 18:31N 46°09' W 001°09'0 0.0
2016-May-30 17:28N 46°09' W 001°09'0 0.0
2016-May-30 16:31N 46°09' W 001°09'0 0.0
2016-May-30 15:31N 46°09' W 001°09'0 0.0
2016-May-30 14:31N 46°09' W 001°09'0 0.0
2016-May-30 13:31N 46°09' W 001°09'0 0.0
2016-May-30 12:31N 46°09' W 001°09'0 0.0
2016-May-30 11:28N 46°09' W 001°09'0 0.0
2016-May-30 10:31N 46°09' W 001°09'0 0.0
2016-May-30 09:31N 46°09' W 001°09'0 0.0
2016-May-30 08:31N 46°09' W 001°09'0 0.0
2016-May-30 07:31N 46°09' W 001°09'0 0.0
2016-May-30 06:31N 46°09' W 001°09'0 0.0
2016-May-30 05:31N 46°09' W 001°09'0 0.0
2016-May-30 04:31N 46°09' W 001°09'0 0.0
2016-May-30 03:28N 46°09' W 001°09'0 0.0
2016-May-30 02:31N 46°09' W 001°09'0 0.0
2016-May-30 01:31N 46°09' W 001°09'0 0.0
2016-May-30 00:31N 46°09' W 001°09'0 0.0
2016-May-29 23:31N 46°09' W 001°09'0 0.0
2016-May-29 22:31N 46°09' W 001°09'0 0.0
2016-May-29 21:31N 46°09' W 001°09'0 0.0
2016-May-29 20:31N 46°09' W 001°09'0 0.0
2016-May-29 19:31N 46°09' W 001°09'0 0.0
2016-May-29 18:31N 46°09' W 001°09'0 0.0
2016-May-29 17:31N 46°09' W 001°09'0 0.0
2016-May-29 16:31N 46°09' W 001°09'0 0.0
2016-May-29 15:31N 46°09' W 001°09'0 0.0
2016-May-29 14:31N 46°09' W 001°09'0 0.0
2016-May-29 13:28N 46°09' W 001°09'0 0.0
2016-May-29 12:28N 46°09' W 001°09'0 0.0
2016-May-29 11:33N 46°09' W 001°09'0 0.0
2016-May-29 10:33N 46°09' W 001°09'1 1.4
2016-May-29 09:33N 46°09' W 001°11'4 4.3
2016-May-29 08:33N 46°06' W 001°16'5 5.5
2016-May-29 07:33N 46°01' W 001°12'1 0.5
2016-May-29 06:27N 46°00' W 001°11'0 0.0
2016-May-29 05:33N 46°00' W 001°11'0 0.1
2016-May-29 04:33N 46°01' W 001°11'0 0.0
2016-May-29 03:33N 46°01' W 001°11'0 0.0
2016-May-28 21:33N 46°01' W 001°11'0 0.0
2016-May-28 20:33N 46°01' W 001°11'0 0.1
2016-May-28 19:33N 46°01' W 001°11'0 0.0
2016-May-28 18:33N 46°01' W 001°11'0 0.0
2016-May-28 17:33N 46°01' W 001°11'0 0.0
2016-May-28 16:24N 46°01' W 001°11'0 0.0
2016-May-28 15:33N 46°01' W 001°11'0 0.0
2016-May-28 13:27N 46°01' W 001°11'0 0.0
2016-May-28 12:15N 46°01' W 001°11'0 0.0
2016-May-28 11:33N 46°01' W 001°11'0 0.0
2016-May-28 10:33N 46°01' W 001°11'0 0.4
2016-May-28 09:30N 46°01' W 001°12'7 7.0
2016-May-28 08:33N 46°05' W 001°19'15 7.6
2016-May-28 06:33N 46°05' W 001°41'  
Track history (hours):
 
Tides and Currents Weather Stations Pressure Air Temp Water Temp Dewpoint Dewpoint Depression Visibility Wind Speed Wind Dir Waves Ship Positions

Picton Castle (Cook Islands)

Ship's website: http://www.picton-castle.com/

Last reported at 2016-May-31 17:32 UTC. Time now 2016-May-31 18:02 UTC.
Position N 46°09' W 001°09'.

; draft 4.4 m.

Type: Sailing vessel. MMSI: 518000019.

Date/timePositionNaut miles runAvg speedWind from/ knotsBaromVisibWave heightAir tempDewpointWater temp
2016-May-31 17:32N 46°09' W 001°09'0 0.0
2016-May-31 16:31N 46°09' W 001°09'0 0.0
2016-May-31 15:28N 46°09' W 001°09'0 0.0
2016-May-31 14:29N 46°09' W 001°09'0 0.0
2016-May-31 13:32N 46°09' W 001°09'0 0.0
2016-May-31 12:31N 46°09' W 001°09'0 0.0
2016-May-31 11:31N 46°09' W 001°09'0 0.0
2016-May-31 10:32N 46°09' W 001°09'0 0.0
2016-May-31 09:31N 46°09' W 001°09'0 0.0
2016-May-31 08:31N 46°09' W 001°09'0 0.0
2016-May-31 07:31N 46°09' W 001°09'0 0.0
2016-May-31 06:31N 46°09' W 001°09'0 0.0
2016-May-31 04:31N 46°09' W 001°09'0 0.0
2016-May-31 03:31N 46°09' W 001°09'0 0.0
2016-May-31 02:31N 46°09' W 001°09'0 0.0
2016-May-31 01:31N 46°09' W 001°09'0 0.0
2016-May-31 00:31N 46°09' W 001°09'0 0.0
2016-May-30 23:31N 46°09' W 001°09'0 0.0
2016-May-30 22:31N 46°09' W 001°09'0 0.0
2016-May-30 21:31N 46°09' W 001°09'0 0.0
2016-May-30 20:31N 46°09' W 001°09'0 0.0
2016-May-30 19:31N 46°09' W 001°09'0 0.0
2016-May-30 18:31N 46°09' W 001°09'0 0.0
2016-May-30 17:28N 46°09' W 001°09'0 0.0
2016-May-30 16:31N 46°09' W 001°09'0 0.0
2016-May-30 15:31N 46°09' W 001°09'0 0.0
2016-May-30 14:31N 46°09' W 001°09'0 0.0
2016-May-30 13:31N 46°09' W 001°09'0 0.0
2016-May-30 12:31N 46°09' W 001°09'0 0.0
2016-May-30 11:28N 46°09' W 001°09'0 0.0
2016-May-30 10:31N 46°09' W 001°09'0 0.0
2016-May-30 09:31N 46°09' W 001°09'0 0.0
2016-May-30 08:31N 46°09' W 001°09'0 0.0
2016-May-30 07:31N 46°09' W 001°09'0 0.0
2016-May-30 06:31N 46°09' W 001°09'0 0.0
2016-May-30 05:31N 46°09' W 001°09'0 0.0
2016-May-30 04:31N 46°09' W 001°09'0 0.0
2016-May-30 03:28N 46°09' W 001°09'0 0.0
2016-May-30 02:31N 46°09' W 001°09'0 0.0
2016-May-30 01:31N 46°09' W 001°09'0 0.0
2016-May-30 00:31N 46°09' W 001°09'0 0.0
2016-May-29 23:31N 46°09' W 001°09'0 0.0
2016-May-29 22:31N 46°09' W 001°09'0 0.0
2016-May-29 21:31N 46°09' W 001°09'0 0.0
2016-May-29 20:31N 46°09' W 001°09'0 0.0
2016-May-29 19:31N 46°09' W 001°09'0 0.0
2016-May-29 18:31N 46°09' W 001°09'0 0.0
2016-May-29 17:31N 46°09' W 001°09'0 0.0
2016-May-29 16:31N 46°09' W 001°09'0 0.0
2016-May-29 15:31N 46°09' W 001°09'0 0.0
2016-May-29 14:31N 46°09' W 001°09'0 0.0
2016-May-29 13:28N 46°09' W 001°09'0 0.0
2016-May-29 12:28N 46°09' W 001°09'0 0.0
2016-May-29 11:33N 46°09' W 001°09'0 0.0
2016-May-29 10:33N 46°09' W 001°09'1 1.4
2016-May-29 09:33N 46°09' W 001°11'4 4.3
2016-May-29 08:33N 46°06' W 001°16'5 5.5
2016-May-29 07:33N 46°01' W 001°12'1 0.5
2016-May-29 06:27N 46°00' W 001°11'0 0.0
2016-May-29 05:33N 46°00' W 001°11'0 0.1
2016-May-29 04:33N 46°01' W 001°11'0 0.0
2016-May-29 03:33N 46°01' W 001°11'0 0.0
2016-May-28 21:33N 46°01' W 001°11'0 0.0
2016-May-28 20:33N 46°01' W 001°11'0 0.1
2016-May-28 19:33N 46°01' W 001°11'0 0.0
2016-May-28 18:33N 46°01' W 001°11'0 0.0
2016-May-28 17:33N 46°01' W 001°11'0 0.0
2016-May-28 16:24N 46°01' W 001°11'0 0.0
2016-May-28 15:33N 46°01' W 001°11'0 0.0
2016-May-28 13:27N 46°01' W 001°11'0 0.0
2016-May-28 12:15N 46°01' W 001°11'0 0.0
2016-May-28 11:33N 46°01' W 001°11'0 0.0
2016-May-28 10:33N 46°01' W 001°11'0 0.4
2016-May-28 09:30N 46°01' W 001°12'7 7.0
2016-May-28 08:33N 46°05' W 001°19'15 7.6
2016-May-28 06:33N 46°05' W 001°41'  

Dump ship's entire track history